Time;durP1;ratioP1;P1;durP2;ratioP2;P2;SDS_P1;SDS_P2;PMS_P1;PMS_P2;Temp;Humidity;BMP_temperature;BMP_pressure;BME280_temperature;BME280_humidity;BME280_pressure;Samples;Min_cycle;Max_cycle;Signal;HPM_P1;HPM_P2
2023/02/05 00:01:21;;;;;;;11.90;6.50;;;;;;;-1.19;90.30;103099.71;108515;1253;74761;-75
2023/02/05 00:03:49;;;;;;;8.50;5.70;;;;;;;-1.19;90.23;103089.47;107938;1253;70987;-77
2023/02/05 00:06:16;;;;;;;10.80;6.10;;;;;;;-1.21;90.32;103081.70;107567;1253;70829;-75
2023/02/05 00:08:44;;;;;;;9.10;5.40;;;;;;;-1.22;90.10;103076.52;108145;1252;61598;-76
2023/02/05 00:11:11;;;;;;;8.70;5.30;;;;;;;-1.22;90.28;103076.16;107778;1253;61260;-75
2023/02/05 00:13:39;;;;;;;8.90;5.50;;;;;;;-1.21;90.19;103074.58;107528;1252;74058;-75
2023/02/05 00:16:13;;;;;;;9.00;5.60;;;;;;;-1.21;90.36;103076.49;107322;1253;69931;-76
2023/02/05 00:18:40;;;;;;;10.50;5.20;;;;;;;-1.20;90.22;103078.23;107619;1253;72690;-75
2023/02/05 00:21:07;;;;;;;7.00;4.70;;;;;;;-1.19;90.27;103077.31;107798;1253;61687;-77
2023/02/05 00:23:35;;;;;;;8.40;5.50;;;;;;;-1.18;90.57;103076.77;107551;1253;61188;-76
2023/02/05 00:26:04;;;;;;;9.10;4.80;;;;;;;-1.18;90.56;103073.81;107293;1250;74278;-75
2023/02/05 00:28:32;;;;;;;10.00;5.50;;;;;;;-1.16;90.57;103074.09;106974;1253;70267;-76
2023/02/05 00:30:59;;;;;;;8.10;4.80;;;;;;;-1.14;90.45;103069.03;106678;1251;72492;-73
2023/02/05 00:33:27;;;;;;;8.20;4.90;;;;;;;-1.17;90.46;103063.54;106949;1254;62202;-75
2023/02/05 00:35:54;;;;;;;7.40;5.00;;;;;;;-1.20;90.47;103068.65;107316;1252;61132;-75
2023/02/05 00:38:21;;;;;;;8.00;4.80;;;;;;;-1.23;90.41;103070.28;106792;1252;75373;-76
2023/02/05 00:40:47;;;;;;;9.10;4.90;;;;;;;-1.27;90.72;103063.27;106850;1254;68862;-76
2023/02/05 00:43:14;;;;;;;9.00;5.20;;;;;;;-1.29;91.12;103062.64;106865;1255;72977;-76
2023/02/05 00:45:42;;;;;;;8.30;4.80;;;;;;;-1.32;91.18;103056.11;106771;1254;61350;-76
2023/02/05 00:48:08;;;;;;;7.90;4.80;;;;;;;-1.34;91.36;103047.66;106989;1253;61190;-76
2023/02/05 00:50:35;;;;;;;8.00;5.10;;;;;;;-1.35;91.44;103039.70;106628;1254;74765;-75
2023/02/05 00:53:02;;;;;;;7.70;4.50;;;;;;;-1.36;91.73;103037.31;106818;1251;68790;-76
2023/02/05 00:55:30;;;;;;;7.00;4.50;;;;;;;-1.38;91.84;103033.52;107539;1253;71781;-74
2023/02/05 00:57:57;;;;;;;8.20;4.80;;;;;;;-1.39;91.98;103028.00;106907;1252;61644;-76
2023/02/05 01:00:25;;;;;;;8.40;4.80;;;;;;;-1.40;92.01;103021.61;106711;1256;61295;-75
2023/02/05 01:02:53;;;;;;;7.10;4.70;;;;;;;-1.39;92.31;103017.77;106687;1254;74387;-76
2023/02/05 01:05:20;;;;;;;7.60;5.10;;;;;;;-1.39;92.52;103010.14;107184;1253;71117;-75
2023/02/05 01:07:47;;;;;;;7.70;4.80;;;;;;;-1.39;92.26;103008.58;107029;1254;72490;-75
2023/02/05 01:10:14;;;;;;;7.20;4.80;;;;;;;-1.40;92.50;103007.56;106985;1253;61241;-75
2023/02/05 01:12:41;;;;;;;10.70;4.80;;;;;;;-1.41;92.30;103010.69;106941;1253;61254;-75
2023/02/05 01:15:10;;;;;;;8.40;5.10;;;;;;;-1.41;92.19;103006.17;107377;1256;74537;-76
2023/02/05 01:17:38;;;;;;;9.20;5.00;;;;;;;-1.42;92.16;103000.84;106946;1254;70228;-75
2023/02/05 01:20:06;;;;;;;8.10;5.60;;;;;;;-1.43;92.43;102993.75;106748;1252;71924;-76
2023/02/05 01:22:33;;;;;;;7.70;4.90;;;;;;;-1.44;92.32;102988.73;106751;1251;61337;-75
2023/02/05 01:25:00;;;;;;;8.60;5.00;;;;;;;-1.44;92.28;102977.80;106992;1256;61235;-76
2023/02/05 01:27:27;;;;;;;6.30;4.80;;;;;;;-1.46;92.19;102975.25;106897;1256;74024;-77
2023/02/05 01:29:54;;;;;;;9.40;4.70;;;;;;;-1.47;92.28;102974.59;106983;1252;72072;-76
2023/02/05 01:32:21;;;;;;;10.30;5.10;;;;;;;-1.50;92.00;102968.60;106921;1253;72340;-75
2023/02/05 01:34:48;;;;;;;9.10;5.40;;;;;;;-1.53;92.08;102958.95;107063;1256;61161;-76
2023/02/05 01:37:15;;;;;;;8.30;4.90;;;;;;;-1.54;92.57;102947.89;107080;1258;61216;-75
2023/02/05 01:39:41;;;;;;;8.60;5.00;;;;;;;-1.54;92.71;102950.84;107205;1254;73708;-76
2023/02/05 01:42:21;;;;;;;8.60;4.70;;;;;;;-1.55;92.58;102958.31;107131;1253;71002;-76
2023/02/05 01:45:22;;;;;;;8.10;4.60;;;;;;;-1.56;92.68;102958.01;107058;1253;71615;-76
2023/02/05 01:47:54;;;;;;;7.40;4.90;;;;;;;-1.56;92.86;102960.77;106936;1251;61567;-77
2023/02/05 01:50:27;;;;;;;8.60;4.50;;;;;;;-1.56;92.67;102964.23;106943;1253;61342;-76
2023/02/05 01:52:57;;;;;;;6.90;4.40;;;;;;;-1.57;92.75;102966.86;107204;1254;73321;-76
2023/02/05 01:55:24;;;;;;;7.20;4.00;;;;;;;-1.57;92.59;102959.07;107212;1253;69930;-76
2023/02/05 01:57:53;;;;;;;7.20;4.40;;;;;;;-1.58;92.78;102949.02;107038;1253;71122;-76
2023/02/05 02:00:23;;;;;;;8.00;4.50;;;;;;;-1.59;92.74;102937.77;106873;1255;61151;-77
2023/02/05 02:02:51;;;;;;;7.10;4.40;;;;;;;-1.59;92.88;102939.34;106811;1253;62418;-76
2023/02/05 02:05:18;;;;;;;6.00;4.40;;;;;;;-1.58;93.05;102940.36;106725;1256;74810;-77
2023/02/05 02:07:45;;;;;;;7.00;4.00;;;;;;;-1.56;92.74;102935.10;107031;1253;69479;-77
2023/02/05 02:10:14;;;;;;;7.60;4.50;;;;;;;-1.56;92.54;102920.52;107318;1251;71464;-76
2023/02/05 02:12:44;;;;;;;7.00;4.30;;;;;;;-1.57;92.33;102914.29;106889;1253;61247;-77
2023/02/05 02:15:15;;;;;;;6.50;4.10;;;;;;;-1.57;92.25;102910.98;106944;1254;61190;-76
2023/02/05 02:17:46;;;;;;;6.20;4.10;;;;;;;-1.58;92.17;102915.73;106695;1254;73832;-75
2023/02/05 02:20:25;;;;;;;7.30;4.30;;;;;;;-1.61;92.16;102914.58;106729;1254;70093;-77
2023/02/05 02:22:55;;;;;;;6.40;3.70;;;;;;;-1.64;92.27;102911.55;107276;1252;72635;-76
2023/02/05 02:25:47;;;;;;;6.20;4.20;;;;;;;-1.70;92.48;102907.86;106804;1254;61251;-75
2023/02/05 02:28:23;;;;;;;9.50;4.20;;;;;;;-1.73;93.07;102912.09;107419;1252;61253;-75
2023/02/05 02:31:15;;;;;;;6.60;4.50;;;;;;;-1.74;93.33;102912.67;106749;1254;72434;-76
2023/02/05 02:34:06;;;;;;;6.70;3.90;;;;;;;-1.75;93.58;102907.48;106764;1254;70030;-75
2023/02/05 02:36:40;;;;;;;6.90;4.40;;;;;;;-1.75;93.71;102902.63;106992;1253;71146;-75
2023/02/05 02:39:20;;;;;;;8.30;4.30;;;;;;;-1.75;93.54;102894.98;107095;1254;61253;-76
2023/02/05 02:42:01;;;;;;;6.60;4.10;;;;;;;-1.76;93.97;102895.89;106839;1254;61251;-76
2023/02/05 02:45:08;;;;;;;6.00;3.80;;;;;;;-1.75;93.90;102891.17;106994;1253;73264;-75
2023/02/05 02:47:46;;;;;;;6.20;4.00;;;;;;;-1.75;93.77;102883.53;106370;1254;70934;-75
2023/02/05 02:50:25;;;;;;;6.30;3.90;;;;;;;-1.75;93.85;102880.08;106622;1254;71188;-76
2023/02/05 02:52:54;;;;;;;6.40;4.10;;;;;;;-1.75;93.55;102876.42;106917;1252;62205;-75
2023/02/05 02:55:23;;;;;;;6.90;4.10;;;;;;;-1.74;93.72;102875.19;106799;1253;60055;-77
2023/02/05 02:57:52;;;;;;;7.10;4.30;;;;;;;-1.72;93.67;102874.61;107063;1253;73011;-76
2023/02/05 03:00:23;;;;;;;7.50;4.30;;;;;;;-1.72;93.55;102867.85;106899;1252;69730;-75
2023/02/05 03:02:54;;;;;;;6.60;4.20;;;;;;;-1.71;93.90;102867.66;107272;1253;71358;-76
2023/02/05 03:05:23;;;;;;;6.60;3.80;;;;;;;-1.68;93.86;102876.41;106881;1252;61726;-76
2023/02/05 03:07:58;;;;;;;7.30;4.10;;;;;;;-1.63;93.91;102883.24;106754;1253;62146;-77
2023/02/05 03:10:35;;;;;;;6.20;3.90;;;;;;;-1.57;93.74;102878.56;106786;1252;73117;-76
2023/02/05 03:13:03;;;;;;;6.70;4.10;;;;;;;-1.53;93.43;102867.51;106559;1254;69825;-75
2023/02/05 03:15:30;;;;;;;6.60;4.00;;;;;;;-1.50;93.22;102873.83;107022;1252;71422;-74
2023/02/05 03:17:58;;;;;;;6.80;3.70;;;;;;;-1.45;93.20;102882.03;107400;1253;61246;-75
2023/02/05 03:20:28;;;;;;;6.50;4.10;;;;;;;-1.42;92.93;102881.41;106872;1252;61245;-76
2023/02/05 03:22:55;;;;;;;6.60;4.10;;;;;;;-1.38;92.95;102874.56;106973;1253;73692;-77
2023/02/05 03:25:26;;;;;;;5.80;3.80;;;;;;;-1.35;92.62;102877.94;106809;1254;69676;-75
2023/02/05 03:27:53;;;;;;;6.40;3.70;;;;;;;-1.33;92.51;102874.42;106825;1253;72422;-78
2023/02/05 03:30:23;;;;;;;7.70;4.30;;;;;;;-1.34;92.89;102874.09;106781;1252;61241;-75
2023/02/05 03:33:24;;;;;;;6.60;3.80;;;;;;;-1.35;93.39;102877.58;106913;1254;61333;-76
2023/02/05 03:36:02;;;;;;;6.80;4.20;;;;;;;-1.33;93.57;102874.08;106853;1252;74317;-76
2023/02/05 03:39:01;;;;;;;6.80;3.70;;;;;;;-1.31;93.70;102869.67;107061;1254;69960;-76
2023/02/05 03:41:59;;;;;;;6.50;4.10;;;;;;;-1.29;93.64;102867.14;106844;1256;71760;-76
2023/02/05 03:44:53;;;;;;;6.90;3.90;;;;;;;-1.26;93.73;102864.81;106752;1254;61562;-75
2023/02/05 03:47:50;;;;;;;7.90;4.10;;;;;;;-1.21;93.67;102865.23;106922;1254;61270;-74
2023/02/05 03:50:37;;;;;;;6.50;4.30;;;;;;;-1.15;93.54;102874.73;106811;1256;75221;-76
2023/02/05 03:53:16;;;;;;;6.20;4.00;;;;;;;-1.07;93.33;102876.95;106974;1253;71161;-76
2023/02/05 03:55:58;;;;;;;5.70;3.90;;;;;;;-0.99;93.24;102869.42;107130;1252;71741;-76
2023/02/05 03:58:35;;;;;;;5.70;3.90;;;;;;;-0.93;93.03;102857.23;106979;1252;61358;-75
2023/02/05 04:01:04;;;;;;;6.70;4.40;;;;;;;-0.90;92.64;102849.84;106616;1252;61336;-76
2023/02/05 04:03:31;;;;;;;6.60;4.20;;;;;;;-0.88;92.38;102847.52;106900;1251;74014;-76
2023/02/05 04:05:58;;;;;;;6.80;3.90;;;;;;;-0.85;92.47;102852.45;106699;1254;70974;-76
2023/02/05 04:08:24;;;;;;;6.10;4.00;;;;;;;-0.83;92.34;102848.06;106685;1252;71511;-76
2023/02/05 04:10:51;;;;;;;6.20;3.90;;;;;;;-0.81;92.43;102841.76;106809;1251;61449;-75
2023/02/05 04:13:19;;;;;;;7.60;4.20;;;;;;;-0.81;92.18;102837.93;106823;1252;61148;-75
2023/02/05 04:15:47;;;;;;;7.90;4.10;;;;;;;-0.80;92.18;102836.37;106942;1254;74404;-77
2023/02/05 04:18:15;;;;;;;7.40;4.30;;;;;;;-0.80;92.37;102832.54;106737;1254;69698;-76
2023/02/05 04:20:42;;;;;;;7.20;4.40;;;;;;;-0.80;92.50;102831.14;107110;1253;71392;-75
2023/02/05 04:23:10;;;;;;;7.20;4.60;;;;;;;-0.83;92.61;102829.83;106681;1254;62393;-76
2023/02/05 04:25:38;;;;;;;7.40;4.10;;;;;;;-0.82;92.71;102832.05;106522;1255;61173;-77
2023/02/05 04:28:05;;;;;;;6.00;4.10;;;;;;;-0.81;92.75;102828.73;106793;1256;74029;-76
2023/02/05 04:30:33;;;;;;;7.00;4.40;;;;;;;-0.80;92.70;102831.84;106921;1253;70930;-76
2023/02/05 04:33:00;;;;;;;5.90;4.20;;;;;;;-0.77;92.86;102830.17;107117;1254;72392;-75
2023/02/05 04:35:27;;;;;;;6.90;4.50;;;;;;;-0.73;92.93;102830.02;107012;1253;62117;-75
2023/02/05 04:37:54;;;;;;;7.10;4.00;;;;;;;-0.70;92.77;102827.48;106754;1254;61093;-76
2023/02/05 04:40:21;;;;;;;7.50;4.20;;;;;;;-0.68;92.68;102825.52;107293;1252;72229;-76
2023/02/05 04:42:48;;;;;;;6.60;3.90;;;;;;;-0.66;92.77;102829.11;107105;1253;68741;-77
2023/02/05 04:45:15;;;;;;;6.50;3.70;;;;;;;-0.63;92.67;102834.41;106842;1256;70875;-76
2023/02/05 04:47:42;;;;;;;6.60;3.60;;;;;;;-0.61;92.75;102830.88;107050;1252;61743;-76
2023/02/05 04:50:09;;;;;;;6.00;3.60;;;;;;;-0.61;92.54;102821.83;107132;1252;61205;-76
2023/02/05 04:52:36;;;;;;;6.60;4.40;;;;;;;-0.58;92.55;102823.66;106828;1254;73196;-77
2023/02/05 04:55:04;;;;;;;6.30;4.00;;;;;;;-0.57;92.27;102824.31;106931;1253;72196;-76
2023/02/05 04:57:31;;;;;;;5.80;4.10;;;;;;;-0.56;92.27;102818.73;106535;1254;72382;-76
2023/02/05 04:59:58;;;;;;;7.60;4.10;;;;;;;-0.54;92.24;102816.40;106661;1252;61343;-76
2023/02/05 05:02:25;;;;;;;6.00;3.50;;;;;;;-0.53;92.23;102812.87;107348;1252;61791;-77
2023/02/05 05:04:52;;;;;;;6.20;3.90;;;;;;;-0.50;92.04;102809.67;107278;1254;72846;-77
2023/02/05 05:07:19;;;;;;;6.10;3.40;;;;;;;-0.49;92.12;102809.80;107237;1256;71634;-76
2023/02/05 05:09:46;;;;;;;5.50;3.60;;;;;;;-0.47;92.00;102809.39;106786;1253;71347;-81
2023/02/05 05:12:12;;;;;;;5.70;3.80;;;;;;;-0.45;91.98;102817.65;106997;1254;61358;-77
2023/02/05 05:14:39;;;;;;;6.20;3.60;;;;;;;-0.42;91.89;102821.91;106961;1253;61326;-76
2023/02/05 05:17:06;;;;;;;6.70;3.50;;;;;;;-0.39;91.91;102816.59;106649;1254;74347;-76
2023/02/05 05:19:33;;;;;;;5.60;3.50;;;;;;;-0.37;91.80;102821.90;107002;1254;71045;-76
2023/02/05 05:22:00;;;;;;;6.00;3.60;;;;;;;-0.34;91.64;102817.14;106703;1254;71114;-77
2023/02/05 05:24:27;;;;;;;5.20;3.40;;;;;;;-0.33;91.64;102808.41;106886;1254;61367;-75
2023/02/05 05:26:54;;;;;;;6.10;3.80;;;;;;;-0.32;91.71;102800.20;107300;1254;61171;-76
2023/02/05 05:29:21;;;;;;;6.40;3.90;;;;;;;-0.32;91.54;102795.67;106577;1254;73630;-77
2023/02/05 05:31:51;;;;;;;5.80;3.50;;;;;;;-0.32;91.39;102795.48;106989;1251;69909;-76
2023/02/05 05:34:18;;;;;;;5.70;3.70;;;;;;;-0.31;91.42;102796.66;106603;1259;72544;-76
2023/02/05 05:36:46;;;;;;;5.80;3.70;;;;;;;-0.29;91.50;102801.99;106639;1254;61228;-75
2023/02/05 05:44:48;;;;;;;5.80;3.30;;;;;;;-0.18;91.25;102789.62;107032;1256;69792;-76
2023/02/05 05:47:16;;;;;;;6.10;3.60;;;;;;;-0.14;91.12;102788.63;106661;1256;72147;-77
2023/02/05 05:49:42;;;;;;;7.00;3.50;;;;;;;-0.12;90.93;102784.54;106571;1254;61349;-76
2023/02/05 05:52:09;;;;;;;5.80;3.30;;;;;;;-0.10;90.90;102781.66;106863;1254;61096;-75
2023/02/05 05:54:37;;;;;;;7.70;3.60;;;;;;;-0.10;90.95;102778.55;106616;1256;230968;-75
2023/02/05 05:57:05;;;;;;;5.50;3.30;;;;;;;-0.09;90.72;102779.02;106633;1255;71133;-76
2023/02/05 05:59:32;;;;;;;4.70;3.00;;;;;;;-0.10;90.79;102776.96;107062;1255;72587;-75
2023/02/05 06:02:03;;;;;;;5.90;3.60;;;;;;;-0.12;90.66;102770.63;106951;1254;61338;-76
2023/02/05 06:04:29;;;;;;;7.20;3.40;;;;;;;-0.16;90.75;102757.02;106824;1254;61239;-74
2023/02/05 06:06:58;;;;;;;5.10;3.40;;;;;;;-0.19;90.85;102752.95;106650;1256;74865;-76
2023/02/05 06:09:25;;;;;;;6.70;3.50;;;;;;;-0.21;90.88;102744.69;106598;1254;69975;-76
2023/02/05 06:12:01;;;;;;;4.80;3.10;;;;;;;-0.22;91.13;102740.02;106987;1252;72419;-76
2023/02/05 06:14:28;;;;;;;5.70;3.40;;;;;;;-0.23;91.07;102739.19;106899;1253;61343;-76
2023/02/05 06:17:02;;;;;;;5.50;3.20;;;;;;;-0.22;91.29;102740.04;107306;1256;61180;-76
2023/02/05 06:19:29;;;;;;;4.40;3.10;;;;;;;-0.21;91.26;102736.67;106822;1253;73201;-75
2023/02/05 06:21:56;;;;;;;4.90;3.20;;;;;;;-0.19;91.39;102735.59;106756;1256;69757;-75
2023/02/05 06:24:23;;;;;;;5.00;3.20;;;;;;;-0.19;91.42;102725.68;106711;1253;72481;-77
2023/02/05 06:26:50;;;;;;;6.80;3.30;;;;;;;-0.18;91.51;102705.98;106523;1253;61362;-75
2023/02/05 06:29:17;;;;;;;6.20;3.20;;;;;;;-0.17;91.56;102694.64;106901;1256;61323;-76
2023/02/05 06:31:44;;;;;;;5.80;3.30;;;;;;;-0.15;91.51;102689.54;106746;1254;75309;-76
2023/02/05 06:34:11;;;;;;;6.70;3.20;;;;;;;-0.12;91.51;102699.85;107100;1252;71261;-75
2023/02/05 06:36:38;;;;;;;4.60;3.20;;;;;;;-0.10;91.42;102714.88;106878;1254;71458;-77
2023/02/05 06:39:05;;;;;;;5.60;3.30;;;;;;;-0.06;91.35;102723.45;107247;1256;63014;-76
2023/02/05 06:41:32;;;;;;;5.90;3.50;;;;;;;-0.03;91.43;102723.15;106828;1254;61343;-76
2023/02/05 06:43:59;;;;;;;6.90;3.20;;;;;;;0.03;91.18;102725.91;107054;1254;73153;-75
2023/02/05 06:46:26;;;;;;;5.20;3.10;;;;;;;0.07;91.17;102733.23;106911;1254;70940;-76
2023/02/05 06:48:53;;;;;;;5.60;3.20;;;;;;;0.11;90.94;102748.23;106940;1254;72306;-76
2023/02/05 06:51:20;;;;;;;5.70;3.20;;;;;;;0.16;90.82;102746.46;106918;1259;62552;-77
2023/02/05 06:53:47;;;;;;;6.00;3.20;;;;;;;0.21;90.59;102748.21;107113;1254;61135;-76
2023/02/05 06:56:14;;;;;;;4.70;3.10;;;;;;;0.22;90.14;102740.84;107190;1253;74728;-74
2023/02/05 06:58:42;;;;;;;5.70;3.20;;;;;;;0.23;90.19;102736.12;106816;1256;71181;-76
2023/02/05 07:01:08;;;;;;;5.90;3.10;;;;;;;0.24;90.08;102733.48;107046;1254;71164;-77
2023/02/05 07:03:35;;;;;;;5.50;3.10;;;;;;;0.25;90.03;102732.40;106850;1252;61253;-74
2023/02/05 07:06:04;;;;;;;5.00;2.90;;;;;;;0.25;89.99;102728.23;107070;1253;61829;-75
2023/02/05 07:08:31;;;;;;;5.20;3.50;;;;;;;0.24;89.84;102724.96;106601;1253;73564;-75
2023/02/05 07:10:58;;;;;;;5.60;3.50;;;;;;;0.24;89.84;102728.11;106672;1256;71300;-76
2023/02/05 07:13:25;;;;;;;4.90;3.30;;;;;;;0.24;89.87;102730.86;107011;1256;71207;-75
2023/02/05 07:15:52;;;;;;;5.00;3.30;;;;;;;0.25;89.81;102725.27;106999;1254;61170;-76
2023/02/05 07:18:19;;;;;;;4.90;2.90;;;;;;;0.26;90.00;102726.59;106960;1256;61193;-76
2023/02/05 07:20:47;;;;;;;6.70;3.70;;;;;;;0.29;89.86;102731.54;106778;1254;73425;-78
2023/02/05 07:23:14;;;;;;;6.30;3.90;;;;;;;0.34;89.90;102731.52;106495;1258;70243;-75
2023/02/05 07:25:41;;;;;;;5.70;3.80;;;;;;;0.35;89.82;102736.20;106915;1254;72317;-75
2023/02/05 07:28:11;;;;;;;5.90;3.70;;;;;;;0.36;89.49;102738.77;106627;1259;61226;-75
2023/02/05 07:30:38;;;;;;;6.60;4.00;;;;;;;0.37;89.71;102740.10;106865;1254;61612;-76
2023/02/05 07:33:05;;;;;;;7.00;3.70;;;;;;;0.39;89.64;102730.14;107053;1254;74744;-75
2023/02/05 07:35:36;;;;;;;5.70;3.60;;;;;;;0.42;89.65;102734.39;106604;1254;69878;-75
2023/02/05 07:38:03;;;;;;;6.30;3.90;;;;;;;0.46;89.78;102736.81;106717;1253;70474;-74
2023/02/05 07:40:30;;;;;;;5.60;3.60;;;;;;;0.50;89.64;102719.23;106963;1253;61796;-74
2023/02/05 07:42:57;;;;;;;5.50;3.40;;;;;;;0.52;89.30;102706.99;106535;1256;61363;-75
2023/02/05 07:45:24;;;;;;;5.60;3.30;;;;;;;0.54;89.18;102713.04;106912;1254;74512;-75
2023/02/05 07:47:52;;;;;;;7.30;3.70;;;;;;;0.56;89.28;102714.50;106897;1253;70910;-76
2023/02/05 07:50:19;;;;;;;5.50;3.40;;;;;;;0.62;89.24;102711.14;107094;1253;71672;-77
2023/02/05 07:52:46;;;;;;;5.00;3.40;;;;;;;0.65;89.01;102707.54;106924;1252;61315;-78
2023/02/05 07:55:13;;;;;;;5.80;3.10;;;;;;;0.64;88.96;102701.30;106864;1254;61090;-76
2023/02/05 07:57:40;;;;;;;7.80;3.80;;;;;;;0.63;88.73;102701.70;107168;1254;74615;-75
2023/02/05 08:00:08;;;;;;;5.30;3.50;;;;;;;0.64;88.86;102700.79;106791;1253;70892;-75
2023/02/05 08:02:35;;;;;;;7.70;3.60;;;;;;;0.68;89.00;102700.78;106641;1252;71867;-77
2023/02/05 08:05:02;;;;;;;10.60;3.80;;;;;;;0.72;88.86;102703.39;106894;1251;61842;-75
2023/02/05 08:07:29;;;;;;;6.40;4.20;;;;;;;0.80;89.02;102702.39;107238;1254;61532;-76
2023/02/05 08:09:56;;;;;;;5.80;4.00;;;;;;;0.88;88.92;102703.30;107374;1251;75885;-75
2023/02/05 08:12:23;;;;;;;5.70;4.00;;;;;;;0.96;88.80;102699.84;106998;1252;69706;-76
2023/02/05 08:14:51;;;;;;;5.70;3.50;;;;;;;1.02;88.63;102696.43;107172;1256;71277;-76
2023/02/05 08:17:19;;;;;;;6.10;3.60;;;;;;;1.08;88.44;102701.92;106898;1254;61323;-77
2023/02/05 08:19:45;;;;;;;4.80;3.30;;;;;;;1.17;88.52;102701.59;107136;1256;60399;-74
2023/02/05 08:22:12;;;;;;;5.50;3.20;;;;;;;1.23;87.94;102703.42;107389;1256;73659;-74
2023/02/05 08:24:39;;;;;;;4.60;3.00;;;;;;;1.21;87.22;102702.79;107442;1254;70597;-74
2023/02/05 08:27:06;;;;;;;5.70;3.40;;;;;;;1.20;87.11;102704.56;107227;1251;74572;-75
2023/02/05 08:29:33;;;;;;;5.30;3.40;;;;;;;1.24;87.18;102709.66;107799;1254;61256;-76
2023/02/05 08:32:00;;;;;;;5.30;3.30;;;;;;;1.28;87.14;102706.55;108531;1254;61270;-75
2023/02/05 08:34:27;;;;;;;6.40;3.30;;;;;;;1.32;87.20;102704.79;107751;1254;72489;-75
2023/02/05 08:36:56;;;;;;;6.50;3.50;;;;;;;1.38;87.12;102705.38;107374;1254;69706;-74
2023/02/05 08:39:24;;;;;;;6.60;3.40;;;;;;;1.45;87.23;102708.08;107801;1254;72358;-76
2023/02/05 08:41:52;;;;;;;5.30;3.30;;;;;;;1.51;86.73;102712.17;106784;1260;61326;-75
2023/02/05 08:44:21;;;;;;;5.00;3.30;;;;;;;1.52;86.42;102710.20;106826;1253;61647;-75
2023/02/05 08:46:51;;;;;;;5.50;3.40;;;;;;;1.53;86.22;102703.01;106575;1259;73683;-77
2023/02/05 08:49:19;;;;;;;5.80;3.60;;;;;;;1.55;86.19;102701.54;106946;1256;70910;-74
2023/02/05 08:51:45;;;;;;;5.40;3.60;;;;;;;1.58;86.26;102703.66;107057;1256;71600;-75
2023/02/05 08:54:14;;;;;;;5.40;3.50;;;;;;;1.64;86.51;102707.77;106784;1254;61797;-75
2023/02/05 08:56:45;;;;;;;6.10;3.80;;;;;;;1.70;86.70;102708.53;107131;1256;61204;-75
2023/02/05 08:59:12;;;;;;;6.40;3.80;;;;;;;1.80;86.24;102702.52;107231;1251;74717;-76
2023/02/05 09:01:40;;;;;;;8.00;4.50;;;;;;;1.88;85.98;102700.61;106972;1254;69715;-75
2023/02/05 09:04:11;;;;;;;6.50;4.20;;;;;;;1.95;85.90;102700.61;107085;1252;70754;-75
2023/02/05 09:06:38;;;;;;;7.70;6.20;;;;;;;2.04;85.81;102703.02;106835;1254;61372;-74
2023/02/05 09:09:05;;;;;;;7.20;5.40;;;;;;;2.14;85.90;102701.14;106523;1259;61231;-75
2023/02/05 09:11:32;;;;;;;6.40;4.40;;;;;;;2.24;85.60;102700.85;107037;1254;74668;-75
2023/02/05 09:13:59;;;;;;;7.90;5.10;;;;;;;2.34;85.62;102701.96;106849;1254;70078;-74
2023/02/05 09:16:27;;;;;;;5.90;3.50;;;;;;;2.45;85.27;102703.55;106861;1254;73225;-75
2023/02/05 09:18:56;;;;;;;7.30;3.80;;;;;;;2.53;85.00;102703.02;107364;1257;61787;-74
2023/02/05 09:21:23;;;;;;;6.70;4.20;;;;;;;2.61;85.09;102704.21;106848;1254;61122;-76
2023/02/05 09:23:51;;;;;;;6.40;4.40;;;;;;;2.69;84.60;102704.02;107084;1253;73446;-75
2023/02/05 09:26:18;;;;;;;6.20;4.50;;;;;;;2.73;84.64;102698.89;106823;1259;70633;-75
2023/02/05 09:28:45;;;;;;;7.00;4.70;;;;;;;2.78;84.31;102703.05;106826;1256;72585;-75
2023/02/05 09:31:14;;;;;;;6.10;4.00;;;;;;;2.79;84.14;102703.81;107059;1258;61106;-76
2023/02/05 09:33:41;;;;;;;53.40;36.90;;;;;;;2.81;83.86;102702.67;106807;1254;62394;-76
2023/02/05 09:36:22;;;;;;;21.90;15.30;;;;;;;2.84;83.72;102700.09;106804;1254;73485;-76
2023/02/05 09:38:52;;;;;;;9.00;6.00;;;;;;;2.88;83.57;102700.45;107089;1254;69668;-75
2023/02/05 09:41:55;;;;;;;6.30;3.90;;;;;;;2.91;83.59;102700.48;106827;1254;72717;-75
2023/02/05 09:44:41;;;;;;;5.00;3.50;;;;;;;2.96;83.11;102702.50;106739;1257;61245;-77
2023/02/05 09:47:19;;;;;;;4.90;3.10;;;;;;;3.01;82.83;102701.39;106759;1258;61174;-75
2023/02/05 09:50:05;;;;;;;4.40;2.90;;;;;;;3.08;83.14;102705.41;106794;1256;76043;-76
2023/02/05 09:52:37;;;;;;;4.70;3.20;;;;;;;3.11;82.97;102703.66;107241;1254;69018;-76
2023/02/05 09:55:18;;;;;;;5.20;3.10;;;;;;;3.11;82.98;102708.39;107402;1256;70798;-77
2023/02/05 09:57:45;;;;;;;5.90;3.40;;;;;;;3.10;83.15;102716.46;106886;1255;61346;-76
2023/02/05 10:00:36;;;;;;;5.10;3.00;;;;;;;3.09;83.36;102719.48;107923;1256;61010;-75
2023/02/05 10:03:20;;;;;;;5.50;3.20;;;;;;;3.11;83.36;102719.42;106432;1259;72722;-76
2023/02/05 10:05:53;;;;;;;5.50;3.20;;;;;;;3.14;83.24;102715.58;106680;1257;71059;-75
2023/02/05 10:08:33;;;;;;;6.70;2.90;;;;;;;3.12;82.93;102716.93;106445;1254;70472;-76
2023/02/05 10:11:13;;;;;;;4.80;2.70;;;;;;;3.10;83.20;102711.77;106940;1257;61122;-75
2023/02/05 10:13:43;;;;;;;5.80;2.70;;;;;;;3.11;83.00;102712.23;106239;1259;62181;-75
2023/02/05 10:16:25;;;;;;;8.00;3.10;;;;;;;3.13;83.10;102708.45;106786;1256;72711;-75
2023/02/05 10:19:38;;;;;;;5.20;2.70;;;;;;;3.15;82.99;102709.43;106850;1257;69621;-76
2023/02/05 10:22:20;;;;;;;7.00;3.50;;;;;;;3.17;82.73;102712.80;106611;1259;71175;-74
2023/02/05 10:25:07;;;;;;;5.90;3.60;;;;;;;3.20;82.83;102710.04;106443;1257;62419;-75
2023/02/05 10:27:46;;;;;;;4.60;2.80;;;;;;;3.23;82.79;102711.45;106582;1254;61259;-75
2023/02/05 10:30:21;;;;;;;3.80;2.80;;;;;;;3.26;83.08;102716.71;107116;1253;72305;-74
2023/02/05 10:32:57;;;;;;;4.90;3.00;;;;;;;3.30;83.02;102713.05;107557;1253;71188;-75
2023/02/05 10:35:33;;;;;;;6.70;3.10;;;;;;;3.30;83.08;102716.89;108755;1257;72794;-76
2023/02/05 10:38:02;;;;;;;5.20;3.00;;;;;;;3.31;83.11;102722.98;107186;1254;62078;-74
2023/02/05 10:40:38;;;;;;;5.50;2.80;;;;;;;3.31;82.94;102720.33;107433;1252;62844;-75
2023/02/05 10:43:21;;;;;;;6.50;3.40;;;;;;;3.32;83.06;102723.60;107317;1256;74670;-74
2023/02/05 10:45:48;;;;;;;6.60;3.20;;;;;;;3.35;83.21;102723.83;107250;1260;69712;-74
2023/02/05 10:48:32;;;;;;;4.30;3.20;;;;;;;3.35;83.00;102725.55;107343;1254;71121;-76
2023/02/05 10:51:10;;;;;;;3.70;2.70;;;;;;;3.35;83.06;102724.52;106726;1254;61359;-75
2023/02/05 10:53:37;;;;;;;4.10;2.90;;;;;;;3.34;82.80;102720.55;107167;1257;61404;-75
2023/02/05 10:56:04;;;;;;;5.00;3.30;;;;;;;3.32;82.66;102723.81;106997;1256;73504;-76
2023/02/05 10:58:43;;;;;;;5.60;3.70;;;;;;;3.30;82.66;102725.29;107095;1253;70161;-75
2023/02/05 11:01:15;;;;;;;5.40;3.50;;;;;;;3.33;82.98;102724.79;106949;1256;72235;-75
2023/02/05 11:03:53;;;;;;;5.50;3.60;;;;;;;3.36;82.38;102728.48;106809;1253;60375;-74
2023/02/05 11:06:21;;;;;;;5.00;3.30;;;;;;;3.39;82.53;102721.83;107756;1254;59651;-73
2023/02/05 11:08:48;;;;;;;5.90;3.30;;;;;;;3.43;82.02;102717.27;106590;1257;74104;-76
2023/02/05 11:11:30;;;;;;;5.20;3.00;;;;;;;3.42;81.75;102720.11;108122;1254;68789;-74
2023/02/05 11:14:03;;;;;;;4.60;3.30;;;;;;;3.43;82.16;102715.70;107295;1254;72369;-74
2023/02/05 11:16:52;;;;;;;4.80;3.50;;;;;;;3.48;82.06;102718.05;107174;1254;61209;-74
2023/02/05 11:19:22;;;;;;;4.70;3.50;;;;;;;3.58;81.94;102720.86;108256;1254;61220;-75
2023/02/05 11:21:54;;;;;;;6.00;3.50;;;;;;;3.68;81.69;102727.55;107838;1251;73694;-75
2023/02/05 11:24:26;;;;;;;7.30;3.80;;;;;;;3.78;81.65;102730.70;107794;1253;69938;-75
2023/02/05 11:27:29;;;;;;;6.30;3.60;;;;;;;3.89;81.43;102734.16;107203;1253;73407;-75
2023/02/05 11:30:15;;;;;;;6.10;3.70;;;;;;;4.03;81.13;102729.21;107044;1254;61247;-74
2023/02/05 11:32:44;;;;;;;6.90;3.60;;;;;;;4.13;80.72;102726.20;106982;1252;61250;-74
2023/02/05 11:35:25;;;;;;;5.70;3.30;;;;;;;4.23;80.45;102728.98;107106;1257;74398;-75
2023/02/05 11:38:08;;;;;;;5.50;3.50;;;;;;;4.38;80.47;102734.51;107265;1255;70125;-74
2023/02/05 11:40:36;;;;;;;6.00;3.80;;;;;;;4.47;79.63;102745.70;107372;1254;71433;-74
2023/02/05 11:43:16;;;;;;;7.70;4.10;;;;;;;4.56;79.66;102747.17;107145;1254;61214;-77